sensor_id;sensor_type;location;lat;lon;timestamp;P1;durP1;ratioP1;P2;durP2;ratioP2
59571;SDS011;59406;45.602;11.904;2023-04-07T00:02:40;13.63;;;8.65;;
59571;SDS011;59406;45.602;11.904;2023-04-07T00:07:36;8.55;;;5.53;;
59571;SDS011;59406;45.602;11.904;2023-04-07T00:10:02;12.13;;;6.23;;
59571;SDS011;59406;45.602;11.904;2023-04-07T00:12:28;9.70;;;6.13;;
59571;SDS011;59406;45.602;11.904;2023-04-07T00:14:54;12.10;;;6.35;;
59571;SDS011;59406;45.602;11.904;2023-04-07T00:17:19;10.33;;;5.87;;
59571;SDS011;59406;45.602;11.904;2023-04-07T00:22:16;9.07;;;5.45;;
59571;SDS011;59406;45.602;11.904;2023-04-07T00:24:42;9.57;;;5.90;;
59571;SDS011;59406;45.602;11.904;2023-04-07T00:29:38;8.65;;;5.10;;
59571;SDS011;59406;45.602;11.904;2023-04-07T00:32:03;11.07;;;5.77;;
59571;SDS011;59406;45.602;11.904;2023-04-07T00:34:30;10.20;;;6.00;;
59571;SDS011;59406;45.602;11.904;2023-04-07T00:36:55;9.52;;;6.18;;
59571;SDS011;59406;45.602;11.904;2023-04-07T00:39:21;10.05;;;6.10;;
59571;SDS011;59406;45.602;11.904;2023-04-07T00:46:46;12.15;;;6.55;;
59571;SDS011;59406;45.602;11.904;2023-04-07T00:49:12;10.50;;;6.18;;
59571;SDS011;59406;45.602;11.904;2023-04-07T00:51:39;8.87;;;5.03;;
59571;SDS011;59406;45.602;11.904;2023-04-07T00:54:05;9.05;;;5.82;;
59571;SDS011;59406;45.602;11.904;2023-04-07T00:56:31;10.75;;;6.53;;
59571;SDS011;59406;45.602;11.904;2023-04-07T00:58:57;9.40;;;5.97;;
59571;SDS011;59406;45.602;11.904;2023-04-07T01:01:26;8.57;;;5.57;;
59571;SDS011;59406;45.602;11.904;2023-04-07T01:04:16;11.15;;;6.53;;
59571;SDS011;59406;45.602;11.904;2023-04-07T01:06:49;11.35;;;6.70;;
59571;SDS011;59406;45.602;11.904;2023-04-07T01:09:20;10.95;;;7.32;;
59571;SDS011;59406;45.602;11.904;2023-04-07T01:11:55;9.73;;;6.82;;
59571;SDS011;59406;45.602;11.904;2023-04-07T01:14:31;10.50;;;6.23;;
59571;SDS011;59406;45.602;11.904;2023-04-07T01:17:02;9.50;;;5.50;;
59571;SDS011;59406;45.602;11.904;2023-04-07T01:22:27;9.93;;;5.80;;
59571;SDS011;59406;45.602;11.904;2023-04-07T01:27:51;10.27;;;6.37;;
59571;SDS011;59406;45.602;11.904;2023-04-07T01:33:02;8.90;;;5.50;;
59571;SDS011;59406;45.602;11.904;2023-04-07T01:35:31;7.93;;;4.50;;
59571;SDS011;59406;45.602;11.904;2023-04-07T01:38:00;8.77;;;5.35;;
59571;SDS011;59406;45.602;11.904;2023-04-07T01:40:29;8.73;;;5.13;;
59571;SDS011;59406;45.602;11.904;2023-04-07T01:42:57;9.55;;;5.70;;
59571;SDS011;59406;45.602;11.904;2023-04-07T01:45:24;7.80;;;5.03;;
59571;SDS011;59406;45.602;11.904;2023-04-07T01:47:52;9.02;;;5.20;;
59571;SDS011;59406;45.602;11.904;2023-04-07T01:50:18;9.05;;;5.63;;
59571;SDS011;59406;45.602;11.904;2023-04-07T01:52:45;9.27;;;5.23;;
59571;SDS011;59406;45.602;11.904;2023-04-07T01:55:12;9.30;;;5.68;;
59571;SDS011;59406;45.602;11.904;2023-04-07T01:57:38;7.70;;;4.68;;
59571;SDS011;59406;45.602;11.904;2023-04-07T02:00:05;8.13;;;4.72;;
59571;SDS011;59406;45.602;11.904;2023-04-07T02:05:00;8.83;;;5.17;;
59571;SDS011;59406;45.602;11.904;2023-04-07T02:15:27;8.75;;;4.90;;
59571;SDS011;59406;45.602;11.904;2023-04-07T02:25:31;8.02;;;4.55;;
59571;SDS011;59406;45.602;11.904;2023-04-07T02:27:57;7.25;;;4.60;;
59571;SDS011;59406;45.602;11.904;2023-04-07T02:30:24;8.02;;;4.65;;
59571;SDS011;59406;45.602;11.904;2023-04-07T02:32:51;8.00;;;4.70;;
59571;SDS011;59406;45.602;11.904;2023-04-07T02:35:17;8.50;;;4.80;;
59571;SDS011;59406;45.602;11.904;2023-04-07T02:37:44;8.55;;;5.30;;
59571;SDS011;59406;45.602;11.904;2023-04-07T02:42:39;7.78;;;4.75;;
59571;SDS011;59406;45.602;11.904;2023-04-07T02:47:41;7.32;;;4.35;;
59571;SDS011;59406;45.602;11.904;2023-04-07T02:50:07;8.63;;;4.75;;
59571;SDS011;59406;45.602;11.904;2023-04-07T02:52:33;8.18;;;4.85;;
59571;SDS011;59406;45.602;11.904;2023-04-07T02:54:59;8.93;;;5.13;;
59571;SDS011;59406;45.602;11.904;2023-04-07T02:57:24;8.13;;;4.72;;
59571;SDS011;59406;45.602;11.904;2023-04-07T03:02:20;9.32;;;5.60;;
59571;SDS011;59406;45.602;11.904;2023-04-07T03:04:45;8.48;;;4.95;;
59571;SDS011;59406;45.602;11.904;2023-04-07T03:07:11;9.60;;;5.10;;
59571;SDS011;59406;45.602;11.904;2023-04-07T03:09:37;9.40;;;5.75;;
59571;SDS011;59406;45.602;11.904;2023-04-07T03:12:02;9.83;;;5.63;;
59571;SDS011;59406;45.602;11.904;2023-04-07T03:14:28;8.25;;;5.38;;
59571;SDS011;59406;45.602;11.904;2023-04-07T03:16:54;8.40;;;4.70;;
59571;SDS011;59406;45.602;11.904;2023-04-07T03:19:20;7.88;;;4.47;;
59571;SDS011;59406;45.602;11.904;2023-04-07T03:21:46;8.32;;;4.50;;
59571;SDS011;59406;45.602;11.904;2023-04-07T03:26:41;6.53;;;4.50;;
59571;SDS011;59406;45.602;11.904;2023-04-07T03:29:07;7.85;;;5.18;;
59571;SDS011;59406;45.602;11.904;2023-04-07T03:31:33;7.65;;;4.10;;
59571;SDS011;59406;45.602;11.904;2023-04-07T03:34:00;8.33;;;4.87;;
59571;SDS011;59406;45.602;11.904;2023-04-07T03:36:26;7.07;;;3.90;;
59571;SDS011;59406;45.602;11.904;2023-04-07T03:38:52;8.82;;;5.03;;
59571;SDS011;59406;45.602;11.904;2023-04-07T03:46:18;6.68;;;3.80;;
59571;SDS011;59406;45.602;11.904;2023-04-07T03:48:45;6.78;;;3.92;;
59571;SDS011;59406;45.602;11.904;2023-04-07T03:51:11;7.43;;;4.03;;
59571;SDS011;59406;45.602;11.904;2023-04-07T03:56:09;6.65;;;3.90;;
59571;SDS011;59406;45.602;11.904;2023-04-07T04:01:07;7.05;;;3.78;;
59571;SDS011;59406;45.602;11.904;2023-04-07T04:03:33;7.87;;;3.80;;
59571;SDS011;59406;45.602;11.904;2023-04-07T04:06:00;7.57;;;4.18;;
59571;SDS011;59406;45.602;11.904;2023-04-07T04:08:26;7.80;;;4.40;;
59571;SDS011;59406;45.602;11.904;2023-04-07T04:10:52;9.65;;;5.80;;
59571;SDS011;59406;45.602;11.904;2023-04-07T04:13:17;9.77;;;5.50;;
59571;SDS011;59406;45.602;11.904;2023-04-07T04:15:43;7.80;;;5.03;;
59571;SDS011;59406;45.602;11.904;2023-04-07T04:18:09;6.93;;;3.97;;
59571;SDS011;59406;45.602;11.904;2023-04-07T04:25:32;6.72;;;3.90;;
59571;SDS011;59406;45.602;11.904;2023-04-07T04:28:01;6.97;;;3.55;;
59571;SDS011;59406;45.602;11.904;2023-04-07T04:30:27;7.05;;;3.80;;
59571;SDS011;59406;45.602;11.904;2023-04-07T04:37:52;9.70;;;5.20;;
59571;SDS011;59406;45.602;11.904;2023-04-07T04:40:18;9.77;;;5.90;;
59571;SDS011;59406;45.602;11.904;2023-04-07T04:42:44;9.98;;;5.07;;
59571;SDS011;59406;45.602;11.904;2023-04-07T04:45:10;7.43;;;4.55;;
59571;SDS011;59406;45.602;11.904;2023-04-07T04:47:36;9.75;;;5.80;;
59571;SDS011;59406;45.602;11.904;2023-04-07T04:50:05;9.18;;;5.72;;
59571;SDS011;59406;45.602;11.904;2023-04-07T04:55:03;7.60;;;4.30;;
59571;SDS011;59406;45.602;11.904;2023-04-07T04:57:29;9.75;;;5.55;;
59571;SDS011;59406;45.602;11.904;2023-04-07T04:59:54;8.35;;;4.85;;
59571;SDS011;59406;45.602;11.904;2023-04-07T05:02:20;8.77;;;4.50;;
59571;SDS011;59406;45.602;11.904;2023-04-07T05:04:46;7.23;;;4.23;;
59571;SDS011;59406;45.602;11.904;2023-04-07T05:09:37;8.03;;;4.10;;
59571;SDS011;59406;45.602;11.904;2023-04-07T05:12:03;5.63;;;3.03;;
59571;SDS011;59406;45.602;11.904;2023-04-07T05:14:29;7.53;;;3.80;;
59571;SDS011;59406;45.602;11.904;2023-04-07T05:16:55;8.00;;;5.33;;
59571;SDS011;59406;45.602;11.904;2023-04-07T05:19:21;5.85;;;3.40;;
59571;SDS011;59406;45.602;11.904;2023-04-07T05:21:46;5.87;;;3.40;;
59571;SDS011;59406;45.602;11.904;2023-04-07T05:24:12;6.40;;;3.30;;
59571;SDS011;59406;45.602;11.904;2023-04-07T05:26:38;7.67;;;3.33;;
59571;SDS011;59406;45.602;11.904;2023-04-07T05:29:03;6.80;;;3.85;;
59571;SDS011;59406;45.602;11.904;2023-04-07T05:31:29;7.30;;;4.68;;
59571;SDS011;59406;45.602;11.904;2023-04-07T05:33:55;8.50;;;5.20;;
59571;SDS011;59406;45.602;11.904;2023-04-07T05:36:21;7.50;;;4.68;;
59571;SDS011;59406;45.602;11.904;2023-04-07T05:38:47;11.82;;;5.53;;
59571;SDS011;59406;45.602;11.904;2023-04-07T05:41:13;9.13;;;5.10;;
59571;SDS011;59406;45.602;11.904;2023-04-07T05:43:39;8.50;;;5.40;;
59571;SDS011;59406;45.602;11.904;2023-04-07T05:46:05;8.48;;;5.28;;
59571;SDS011;59406;45.602;11.904;2023-04-07T05:51:00;7.05;;;3.80;;
59571;SDS011;59406;45.602;11.904;2023-04-07T05:53:26;6.53;;;3.65;;
59571;SDS011;59406;45.602;11.904;2023-04-07T05:55:52;6.70;;;4.20;;
59571;SDS011;59406;45.602;11.904;2023-04-07T05:58:18;7.87;;;3.63;;
59571;SDS011;59406;45.602;11.904;2023-04-07T06:00:44;6.82;;;3.83;;
59571;SDS011;59406;45.602;11.904;2023-04-07T06:10:51;6.32;;;3.08;;
59571;SDS011;59406;45.602;11.904;2023-04-07T06:13:17;7.53;;;3.47;;
59571;SDS011;59406;45.602;11.904;2023-04-07T06:15:43;7.03;;;3.53;;
59571;SDS011;59406;45.602;11.904;2023-04-07T06:18:08;7.38;;;3.10;;
59571;SDS011;59406;45.602;11.904;2023-04-07T06:20:35;8.20;;;3.72;;
59571;SDS011;59406;45.602;11.904;2023-04-07T06:23:00;5.77;;;2.93;;
59571;SDS011;59406;45.602;11.904;2023-04-07T06:25:26;6.65;;;3.03;;
59571;SDS011;59406;45.602;11.904;2023-04-07T06:27:52;5.60;;;3.27;;
59571;SDS011;59406;45.602;11.904;2023-04-07T06:30:20;6.30;;;3.47;;
59571;SDS011;59406;45.602;11.904;2023-04-07T06:32:46;6.45;;;3.17;;
59571;SDS011;59406;45.602;11.904;2023-04-07T06:35:11;5.63;;;2.90;;
59571;SDS011;59406;45.602;11.904;2023-04-07T06:37:37;5.82;;;3.00;;
59571;SDS011;59406;45.602;11.904;2023-04-07T06:40:03;7.90;;;3.35;;
59571;SDS011;59406;45.602;11.904;2023-04-07T06:42:31;6.25;;;3.00;;
59571;SDS011;59406;45.602;11.904;2023-04-07T06:44:56;6.17;;;3.17;;
59571;SDS011;59406;45.602;11.904;2023-04-07T06:47:22;5.55;;;2.97;;
59571;SDS011;59406;45.602;11.904;2023-04-07T06:49:48;6.17;;;2.77;;
59571;SDS011;59406;45.602;11.904;2023-04-07T06:52:14;5.55;;;2.85;;
59571;SDS011;59406;45.602;11.904;2023-04-07T06:54:40;6.07;;;3.22;;
59571;SDS011;59406;45.602;11.904;2023-04-07T06:57:06;6.47;;;2.90;;
59571;SDS011;59406;45.602;11.904;2023-04-07T06:59:38;6.40;;;3.30;;
59571;SDS011;59406;45.602;11.904;2023-04-07T07:02:04;5.32;;;2.95;;
59571;SDS011;59406;45.602;11.904;2023-04-07T07:04:31;6.72;;;2.75;;
59571;SDS011;59406;45.602;11.904;2023-04-07T07:06:58;6.32;;;2.90;;
59571;SDS011;59406;45.602;11.904;2023-04-07T07:09:24;5.80;;;3.03;;
59571;SDS011;59406;45.602;11.904;2023-04-07T07:11:51;6.90;;;3.45;;
59571;SDS011;59406;45.602;11.904;2023-04-07T07:14:17;7.07;;;3.95;;
59571;SDS011;59406;45.602;11.904;2023-04-07T07:16:43;8.33;;;4.07;;
59571;SDS011;59406;45.602;11.904;2023-04-07T07:19:09;6.15;;;3.53;;
59571;SDS011;59406;45.602;11.904;2023-04-07T07:21:35;8.57;;;4.00;;
59571;SDS011;59406;45.602;11.904;2023-04-07T07:24:01;7.10;;;3.88;;
59571;SDS011;59406;45.602;11.904;2023-04-07T07:26:27;6.25;;;2.83;;
59571;SDS011;59406;45.602;11.904;2023-04-07T07:28:53;5.93;;;2.87;;
59571;SDS011;59406;45.602;11.904;2023-04-07T07:31:18;6.53;;;3.20;;
59571;SDS011;59406;45.602;11.904;2023-04-07T07:33:44;6.75;;;2.72;;
59571;SDS011;59406;45.602;11.904;2023-04-07T07:36:12;6.82;;;2.92;;
59571;SDS011;59406;45.602;11.904;2023-04-07T07:38:38;9.73;;;4.60;;
59571;SDS011;59406;45.602;11.904;2023-04-07T07:41:07;8.02;;;4.28;;
59571;SDS011;59406;45.602;11.904;2023-04-07T07:43:33;7.68;;;3.78;;
59571;SDS011;59406;45.602;11.904;2023-04-07T07:45:59;8.50;;;3.97;;
59571;SDS011;59406;45.602;11.904;2023-04-07T07:48:25;7.88;;;4.75;;
59571;SDS011;59406;45.602;11.904;2023-04-07T07:50:51;7.80;;;4.20;;
59571;SDS011;59406;45.602;11.904;2023-04-07T07:53:17;5.20;;;2.97;;
59571;SDS011;59406;45.602;11.904;2023-04-07T07:55:44;6.93;;;2.97;;
59571;SDS011;59406;45.602;11.904;2023-04-07T07:58:11;7.00;;;3.70;;
59571;SDS011;59406;45.602;11.904;2023-04-07T08:00:36;8.83;;;4.23;;
59571;SDS011;59406;45.602;11.904;2023-04-07T08:03:02;9.38;;;4.75;;
59571;SDS011;59406;45.602;11.904;2023-04-07T08:05:28;8.90;;;3.93;;
59571;SDS011;59406;45.602;11.904;2023-04-07T08:07:53;9.35;;;5.25;;
59571;SDS011;59406;45.602;11.904;2023-04-07T08:10:19;6.28;;;3.15;;
59571;SDS011;59406;45.602;11.904;2023-04-07T08:12:46;6.50;;;3.40;;
59571;SDS011;59406;45.602;11.904;2023-04-07T08:15:11;8.48;;;3.70;;
59571;SDS011;59406;45.602;11.904;2023-04-07T08:17:37;6.25;;;2.65;;
59571;SDS011;59406;45.602;11.904;2023-04-07T08:20:03;7.53;;;2.87;;
59571;SDS011;59406;45.602;11.904;2023-04-07T08:22:30;9.45;;;4.80;;
59571;SDS011;59406;45.602;11.904;2023-04-07T08:24:56;6.43;;;3.22;;
59571;SDS011;59406;45.602;11.904;2023-04-07T08:27:22;8.87;;;4.50;;
59571;SDS011;59406;45.602;11.904;2023-04-07T08:32:17;9.88;;;4.93;;
59571;SDS011;59406;45.602;11.904;2023-04-07T08:34:43;11.67;;;5.70;;
59571;SDS011;59406;45.602;11.904;2023-04-07T08:37:09;10.07;;;4.93;;
59571;SDS011;59406;45.602;11.904;2023-04-07T08:39:34;11.87;;;5.57;;
59571;SDS011;59406;45.602;11.904;2023-04-07T08:42:00;8.93;;;4.70;;
59571;SDS011;59406;45.602;11.904;2023-04-07T08:44:27;6.60;;;3.33;;
59571;SDS011;59406;45.602;11.904;2023-04-07T08:46:56;7.43;;;3.53;;
59571;SDS011;59406;45.602;11.904;2023-04-07T08:49:23;11.23;;;5.03;;
59571;SDS011;59406;45.602;11.904;2023-04-07T08:51:53;6.90;;;2.83;;
59571;SDS011;59406;45.602;11.904;2023-04-07T08:54:22;8.88;;;2.72;;
59571;SDS011;59406;45.602;11.904;2023-04-07T08:56:49;5.57;;;2.63;;
59571;SDS011;59406;45.602;11.904;2023-04-07T08:59:15;9.03;;;4.67;;
59571;SDS011;59406;45.602;11.904;2023-04-07T09:01:49;8.68;;;4.03;;
59571;SDS011;59406;45.602;11.904;2023-04-07T09:04:16;12.15;;;6.63;;
59571;SDS011;59406;45.602;11.904;2023-04-07T09:06:43;11.82;;;5.15;;
59571;SDS011;59406;45.602;11.904;2023-04-07T09:11:38;15.13;;;5.23;;
59571;SDS011;59406;45.602;11.904;2023-04-07T09:14:05;17.35;;;5.10;;
59571;SDS011;59406;45.602;11.904;2023-04-07T09:16:31;14.70;;;6.40;;
59571;SDS011;59406;45.602;11.904;2023-04-07T09:18:58;16.65;;;8.07;;
59571;SDS011;59406;45.602;11.904;2023-04-07T09:21:24;20.27;;;8.07;;
59571;SDS011;59406;45.602;11.904;2023-04-07T09:23:51;15.87;;;7.43;;
59571;SDS011;59406;45.602;11.904;2023-04-07T09:31:22;18.25;;;8.48;;
59571;SDS011;59406;45.602;11.904;2023-04-07T09:33:51;25.48;;;8.63;;
59571;SDS011;59406;45.602;11.904;2023-04-07T09:36:17;27.37;;;9.40;;
59571;SDS011;59406;45.602;11.904;2023-04-07T09:38:44;24.15;;;9.73;;
59571;SDS011;59406;45.602;11.904;2023-04-07T09:41:11;28.70;;;11.13;;
59571;SDS011;59406;45.602;11.904;2023-04-07T09:43:39;26.77;;;9.82;;
59571;SDS011;59406;45.602;11.904;2023-04-07T09:46:13;22.42;;;10.00;;
59571;SDS011;59406;45.602;11.904;2023-04-07T09:48:41;30.50;;;10.63;;
59571;SDS011;59406;45.602;11.904;2023-04-07T09:51:12;24.10;;;10.60;;
59571;SDS011;59406;45.602;11.904;2023-04-07T09:53:49;29.58;;;11.18;;
59571;SDS011;59406;45.602;11.904;2023-04-07T09:56:19;29.63;;;10.90;;
59571;SDS011;59406;45.602;11.904;2023-04-07T09:58:49;28.00;;;10.23;;
59571;SDS011;59406;45.602;11.904;2023-04-07T10:01:19;24.23;;;10.87;;
59571;SDS011;59406;45.602;11.904;2023-04-07T10:03:46;24.95;;;10.18;;
59571;SDS011;59406;45.602;11.904;2023-04-07T10:06:12;26.17;;;10.93;;
59571;SDS011;59406;45.602;11.904;2023-04-07T10:08:39;25.25;;;10.93;;
59571;SDS011;59406;45.602;11.904;2023-04-07T10:11:06;26.67;;;9.73;;
59571;SDS011;59406;45.602;11.904;2023-04-07T10:13:34;22.07;;;9.77;;
59571;SDS011;59406;45.602;11.904;2023-04-07T10:16:02;26.45;;;9.40;;
59571;SDS011;59406;45.602;11.904;2023-04-07T10:18:30;36.75;;;12.07;;
59571;SDS011;59406;45.602;11.904;2023-04-07T10:21:02;21.75;;;10.48;;
59571;SDS011;59406;45.602;11.904;2023-04-07T10:26:02;31.07;;;11.37;;
59571;SDS011;59406;45.602;11.904;2023-04-07T10:28:32;32.40;;;12.48;;
59571;SDS011;59406;45.602;11.904;2023-04-07T10:31:02;26.33;;;10.88;;
59571;SDS011;59406;45.602;11.904;2023-04-07T10:33:44;19.42;;;9.18;;
59571;SDS011;59406;45.602;11.904;2023-04-07T10:36:12;21.50;;;8.23;;
59571;SDS011;59406;45.602;11.904;2023-04-07T10:38:38;20.23;;;9.17;;
59571;SDS011;59406;45.602;11.904;2023-04-07T10:44:03;20.65;;;9.80;;
59571;SDS011;59406;45.602;11.904;2023-04-07T10:49:13;19.00;;;8.68;;
59571;SDS011;59406;45.602;11.904;2023-04-07T10:51:40;22.70;;;9.67;;
59571;SDS011;59406;45.602;11.904;2023-04-07T10:54:16;17.60;;;8.77;;
59571;SDS011;59406;45.602;11.904;2023-04-07T10:59:28;15.25;;;7.82;;
59571;SDS011;59406;45.602;11.904;2023-04-07T11:04:49;18.93;;;8.03;;
59571;SDS011;59406;45.602;11.904;2023-04-07T11:07:15;17.90;;;7.72;;
59571;SDS011;59406;45.602;11.904;2023-04-07T11:09:42;18.80;;;8.57;;
59571;SDS011;59406;45.602;11.904;2023-04-07T11:12:08;17.77;;;8.43;;
59571;SDS011;59406;45.602;11.904;2023-04-07T11:14:47;18.50;;;7.30;;
59571;SDS011;59406;45.602;11.904;2023-04-07T11:17:13;16.05;;;8.00;;
59571;SDS011;59406;45.602;11.904;2023-04-07T11:19:53;19.98;;;8.20;;
59571;SDS011;59406;45.602;11.904;2023-04-07T11:22:20;13.65;;;6.72;;
59571;SDS011;59406;45.602;11.904;2023-04-07T11:24:46;14.63;;;7.40;;
59571;SDS011;59406;45.602;11.904;2023-04-07T11:27:12;15.02;;;7.25;;
59571;SDS011;59406;45.602;11.904;2023-04-07T11:29:39;18.92;;;7.35;;
59571;SDS011;59406;45.602;11.904;2023-04-07T11:32:04;14.47;;;7.13;;
59571;SDS011;59406;45.602;11.904;2023-04-07T11:34:34;15.60;;;7.95;;
59571;SDS011;59406;45.602;11.904;2023-04-07T11:39:55;17.65;;;7.10;;
59571;SDS011;59406;45.602;11.904;2023-04-07T11:42:32;14.45;;;7.22;;
59571;SDS011;59406;45.602;11.904;2023-04-07T11:44:59;19.47;;;8.10;;
59571;SDS011;59406;45.602;11.904;2023-04-07T11:47:34;15.07;;;6.50;;
59571;SDS011;59406;45.602;11.904;2023-04-07T11:50:02;15.52;;;7.35;;
59571;SDS011;59406;45.602;11.904;2023-04-07T11:52:28;16.90;;;6.78;;
59571;SDS011;59406;45.602;11.904;2023-04-07T11:55:04;15.52;;;7.47;;
59571;SDS011;59406;45.602;11.904;2023-04-07T11:57:30;17.43;;;8.70;;
59571;SDS011;59406;45.602;11.904;2023-04-07T12:00:06;18.65;;;8.05;;
59571;SDS011;59406;45.602;11.904;2023-04-07T12:02:32;14.90;;;7.15;;
59571;SDS011;59406;45.602;11.904;2023-04-07T12:04:58;15.95;;;7.65;;
59571;SDS011;59406;45.602;11.904;2023-04-07T12:07:25;15.73;;;7.53;;
59571;SDS011;59406;45.602;11.904;2023-04-07T12:09:52;15.98;;;7.35;;
59571;SDS011;59406;45.602;11.904;2023-04-07T12:12:25;19.33;;;8.30;;
59571;SDS011;59406;45.602;11.904;2023-04-07T12:14:57;14.25;;;7.10;;
59571;SDS011;59406;45.602;11.904;2023-04-07T12:17:23;15.50;;;8.17;;
59571;SDS011;59406;45.602;11.904;2023-04-07T12:19:50;13.35;;;7.05;;
59571;SDS011;59406;45.602;11.904;2023-04-07T12:22:17;15.07;;;7.47;;
59571;SDS011;59406;45.602;11.904;2023-04-07T12:24:43;15.85;;;7.35;;
59571;SDS011;59406;45.602;11.904;2023-04-07T12:27:10;12.63;;;6.95;;
59571;SDS011;59406;45.602;11.904;2023-04-07T12:29:36;17.50;;;7.23;;
59571;SDS011;59406;45.602;11.904;2023-04-07T12:32:03;15.93;;;6.28;;
59571;SDS011;59406;45.602;11.904;2023-04-07T12:34:29;14.40;;;6.30;;
59571;SDS011;59406;45.602;11.904;2023-04-07T12:36:55;16.23;;;7.35;;
59571;SDS011;59406;45.602;11.904;2023-04-07T12:39:21;16.70;;;7.30;;
59571;SDS011;59406;45.602;11.904;2023-04-07T12:41:46;14.27;;;6.80;;
59571;SDS011;59406;45.602;11.904;2023-04-07T12:44:14;14.02;;;6.20;;
59571;SDS011;59406;45.602;11.904;2023-04-07T12:46:40;15.70;;;6.40;;
59571;SDS011;59406;45.602;11.904;2023-04-07T12:49:07;14.60;;;6.57;;
59571;SDS011;59406;45.602;11.904;2023-04-07T12:51:33;13.35;;;6.97;;
59571;SDS011;59406;45.602;11.904;2023-04-07T12:53:59;15.45;;;7.18;;
59571;SDS011;59406;45.602;11.904;2023-04-07T12:56:25;13.13;;;7.15;;
59571;SDS011;59406;45.602;11.904;2023-04-07T12:58:53;14.87;;;6.60;;
59571;SDS011;59406;45.602;11.904;2023-04-07T13:01:19;15.35;;;7.57;;
59571;SDS011;59406;45.602;11.904;2023-04-07T13:03:45;15.30;;;7.63;;
59571;SDS011;59406;45.602;11.904;2023-04-07T13:06:12;13.82;;;7.35;;
59571;SDS011;59406;45.602;11.904;2023-04-07T13:08:38;14.38;;;7.63;;
59571;SDS011;59406;45.602;11.904;2023-04-07T13:11:05;14.83;;;7.40;;
59571;SDS011;59406;45.602;11.904;2023-04-07T13:13:31;14.45;;;7.15;;
59571;SDS011;59406;45.602;11.904;2023-04-07T13:15:57;15.93;;;7.65;;
59571;SDS011;59406;45.602;11.904;2023-04-07T13:18:23;14.55;;;6.90;;
59571;SDS011;59406;45.602;11.904;2023-04-07T13:20:49;14.07;;;6.97;;
59571;SDS011;59406;45.602;11.904;2023-04-07T13:23:15;12.97;;;5.60;;
59571;SDS011;59406;45.602;11.904;2023-04-07T13:25:41;11.73;;;5.38;;
59571;SDS011;59406;45.602;11.904;2023-04-07T13:28:07;11.30;;;5.85;;
59571;SDS011;59406;45.602;11.904;2023-04-07T13:30:33;14.27;;;7.15;;
59571;SDS011;59406;45.602;11.904;2023-04-07T13:32:59;11.53;;;5.80;;
59571;SDS011;59406;45.602;11.904;2023-04-07T13:35:25;13.13;;;6.90;;
59571;SDS011;59406;45.602;11.904;2023-04-07T13:37:51;15.57;;;7.53;;
59571;SDS011;59406;45.602;11.904;2023-04-07T13:40:17;16.40;;;8.07;;
59571;SDS011;59406;45.602;11.904;2023-04-07T13:42:43;14.10;;;7.30;;
59571;SDS011;59406;45.602;11.904;2023-04-07T13:45:09;14.90;;;7.15;;
59571;SDS011;59406;45.602;11.904;2023-04-07T13:47:35;12.27;;;5.47;;
59571;SDS011;59406;45.602;11.904;2023-04-07T13:50:01;12.68;;;6.00;;
59571;SDS011;59406;45.602;11.904;2023-04-07T13:52:28;11.83;;;5.57;;
59571;SDS011;59406;45.602;11.904;2023-04-07T13:54:56;14.07;;;7.07;;
59571;SDS011;59406;45.602;11.904;2023-04-07T13:57:22;16.90;;;7.75;;
59571;SDS011;59406;45.602;11.904;2023-04-07T13:59:49;14.77;;;7.80;;
59571;SDS011;59406;45.602;11.904;2023-04-07T14:02:17;12.65;;;6.97;;
59571;SDS011;59406;45.602;11.904;2023-04-07T14:04:44;15.88;;;7.50;;
59571;SDS011;59406;45.602;11.904;2023-04-07T14:07:10;14.48;;;7.35;;
59571;SDS011;59406;45.602;11.904;2023-04-07T14:09:36;12.18;;;6.65;;
59571;SDS011;59406;45.602;11.904;2023-04-07T14:12:02;14.03;;;7.03;;
59571;SDS011;59406;45.602;11.904;2023-04-07T14:14:29;14.52;;;7.65;;
59571;SDS011;59406;45.602;11.904;2023-04-07T14:16:55;14.48;;;6.95;;
59571;SDS011;59406;45.602;11.904;2023-04-07T14:19:22;14.38;;;5.55;;
59571;SDS011;59406;45.602;11.904;2023-04-07T14:21:49;13.27;;;5.20;;
59571;SDS011;59406;45.602;11.904;2023-04-07T14:24:15;14.48;;;7.13;;
59571;SDS011;59406;45.602;11.904;2023-04-07T14:26:42;13.90;;;7.60;;
59571;SDS011;59406;45.602;11.904;2023-04-07T14:29:10;13.95;;;7.57;;
59571;SDS011;59406;45.602;11.904;2023-04-07T14:31:36;14.63;;;7.38;;
59571;SDS011;59406;45.602;11.904;2023-04-07T14:34:02;12.60;;;6.00;;
59571;SDS011;59406;45.602;11.904;2023-04-07T14:36:29;14.00;;;6.78;;
59571;SDS011;59406;45.602;11.904;2023-04-07T14:38:55;14.90;;;7.35;;
59571;SDS011;59406;45.602;11.904;2023-04-07T14:41:25;13.25;;;7.20;;
59571;SDS011;59406;45.602;11.904;2023-04-07T14:43:51;13.30;;;6.73;;
59571;SDS011;59406;45.602;11.904;2023-04-07T14:46:21;15.38;;;6.32;;
59571;SDS011;59406;45.602;11.904;2023-04-07T14:48:47;14.20;;;7.10;;
59571;SDS011;59406;45.602;11.904;2023-04-07T14:51:16;13.27;;;7.03;;
59571;SDS011;59406;45.602;11.904;2023-04-07T14:53:42;12.18;;;6.57;;
59571;SDS011;59406;45.602;11.904;2023-04-07T14:56:10;13.87;;;6.50;;
59571;SDS011;59406;45.602;11.904;2023-04-07T14:58:36;12.90;;;6.30;;
59571;SDS011;59406;45.602;11.904;2023-04-07T15:01:04;13.55;;;6.13;;
59571;SDS011;59406;45.602;11.904;2023-04-07T15:03:31;13.48;;;6.32;;
59571;SDS011;59406;45.602;11.904;2023-04-07T15:05:58;15.35;;;6.07;;
59571;SDS011;59406;45.602;11.904;2023-04-07T15:08:24;10.27;;;4.60;;
59571;SDS011;59406;45.602;11.904;2023-04-07T15:10:50;10.38;;;5.15;;
59571;SDS011;59406;45.602;11.904;2023-04-07T15:13:16;11.68;;;5.60;;
59571;SDS011;59406;45.602;11.904;2023-04-07T15:15:42;14.03;;;6.50;;
59571;SDS011;59406;45.602;11.904;2023-04-07T15:18:08;12.63;;;5.53;;
59571;SDS011;59406;45.602;11.904;2023-04-07T15:20:34;11.75;;;5.85;;
59571;SDS011;59406;45.602;11.904;2023-04-07T15:23:00;12.65;;;5.65;;
59571;SDS011;59406;45.602;11.904;2023-04-07T15:25:26;11.97;;;5.00;;
59571;SDS011;59406;45.602;11.904;2023-04-07T15:27:52;11.15;;;5.25;;
59571;SDS011;59406;45.602;11.904;2023-04-07T15:30:18;11.88;;;5.68;;
59571;SDS011;59406;45.602;11.904;2023-04-07T15:33:05;11.32;;;5.40;;
59571;SDS011;59406;45.602;11.904;2023-04-07T15:35:30;9.33;;;5.13;;
59571;SDS011;59406;45.602;11.904;2023-04-07T15:37:56;12.18;;;5.43;;
59571;SDS011;59406;45.602;11.904;2023-04-07T15:40:22;11.37;;;5.50;;
59571;SDS011;59406;45.602;11.904;2023-04-07T15:42:48;12.30;;;5.38;;
59571;SDS011;59406;45.602;11.904;2023-04-07T15:45:13;12.77;;;6.17;;
59571;SDS011;59406;45.602;11.904;2023-04-07T15:47:39;12.27;;;6.05;;
59571;SDS011;59406;45.602;11.904;2023-04-07T15:50:05;13.63;;;5.63;;
59571;SDS011;59406;45.602;11.904;2023-04-07T15:52:31;11.95;;;5.53;;
59571;SDS011;59406;45.602;11.904;2023-04-07T15:54:57;11.68;;;5.45;;
59571;SDS011;59406;45.602;11.904;2023-04-07T15:57:23;9.17;;;4.33;;
59571;SDS011;59406;45.602;11.904;2023-04-07T15:59:49;11.15;;;5.82;;
59571;SDS011;59406;45.602;11.904;2023-04-07T16:02:16;10.70;;;5.07;;
59571;SDS011;59406;45.602;11.904;2023-04-07T16:04:42;10.53;;;4.77;;
59571;SDS011;59406;45.602;11.904;2023-04-07T16:07:11;10.38;;;5.07;;
59571;SDS011;59406;45.602;11.904;2023-04-07T16:09:37;7.97;;;3.80;;
59571;SDS011;59406;45.602;11.904;2023-04-07T16:12:03;11.40;;;3.97;;
59571;SDS011;59406;45.602;11.904;2023-04-07T16:14:29;9.57;;;3.60;;
59571;SDS011;59406;45.602;11.904;2023-04-07T16:16:55;9.52;;;3.53;;
59571;SDS011;59406;45.602;11.904;2023-04-07T16:19:24;8.43;;;3.65;;